sensor_id;sensor_type;location;lat;lon;timestamp;P1;durP1;ratioP1;P2;durP2;ratioP2
24435;SDS011;12616;52.470;13.436;2023-05-02T00:01:07;8.40;;;6.50;;
24435;SDS011;12616;52.470;13.436;2023-05-02T00:03:35;6.13;;;5.47;;
24435;SDS011;12616;52.470;13.436;2023-05-02T00:06:03;8.77;;;7.30;;
24435;SDS011;12616;52.470;13.436;2023-05-02T00:08:30;8.63;;;5.83;;
24435;SDS011;12616;52.470;13.436;2023-05-02T00:10:59;7.00;;;5.47;;
24435;SDS011;12616;52.470;13.436;2023-05-02T00:13:29;7.83;;;6.83;;
24435;SDS011;12616;52.470;13.436;2023-05-02T00:15:59;9.23;;;6.20;;
24435;SDS011;12616;52.470;13.436;2023-05-02T00:18:26;7.13;;;6.30;;
24435;SDS011;12616;52.470;13.436;2023-05-02T00:20:54;6.50;;;6.00;;
24435;SDS011;12616;52.470;13.436;2023-05-02T00:23:21;7.87;;;6.50;;
24435;SDS011;12616;52.470;13.436;2023-05-02T00:25:48;10.50;;;6.03;;
24435;SDS011;12616;52.470;13.436;2023-05-02T00:28:17;7.10;;;6.50;;
24435;SDS011;12616;52.470;13.436;2023-05-02T00:30:47;10.87;;;6.87;;
24435;SDS011;12616;52.470;13.436;2023-05-02T00:33:16;8.03;;;5.90;;
24435;SDS011;12616;52.470;13.436;2023-05-02T00:35:43;7.77;;;6.73;;
24435;SDS011;12616;52.470;13.436;2023-05-02T00:38:10;10.13;;;6.00;;
24435;SDS011;12616;52.470;13.436;2023-05-02T00:40:41;5.50;;;5.00;;
24435;SDS011;12616;52.470;13.436;2023-05-02T00:43:09;6.90;;;6.30;;
24435;SDS011;12616;52.470;13.436;2023-05-02T00:45:38;6.40;;;5.53;;
24435;SDS011;12616;52.470;13.436;2023-05-02T00:48:07;7.77;;;5.70;;
24435;SDS011;12616;52.470;13.436;2023-05-02T00:50:35;6.70;;;5.97;;
24435;SDS011;12616;52.470;13.436;2023-05-02T00:53:04;6.27;;;5.67;;
24435;SDS011;12616;52.470;13.436;2023-05-02T00:55:32;7.53;;;6.77;;
24435;SDS011;12616;52.470;13.436;2023-05-02T00:58:00;7.47;;;6.73;;
24435;SDS011;12616;52.470;13.436;2023-05-02T01:00:30;6.53;;;5.93;;
24435;SDS011;12616;52.470;13.436;2023-05-02T01:03:08;6.47;;;5.83;;
24435;SDS011;12616;52.470;13.436;2023-05-02T01:05:43;6.27;;;5.67;;
24435;SDS011;12616;52.470;13.436;2023-05-02T01:08:24;6.27;;;5.73;;
24435;SDS011;12616;52.470;13.436;2023-05-02T01:11:04;8.30;;;5.97;;
24435;SDS011;12616;52.470;13.436;2023-05-02T01:13:44;6.47;;;5.90;;
24435;SDS011;12616;52.470;13.436;2023-05-02T01:16:13;7.63;;;6.33;;
24435;SDS011;12616;52.470;13.436;2023-05-02T01:18:45;6.07;;;5.50;;
24435;SDS011;12616;52.470;13.436;2023-05-02T01:21:13;8.53;;;5.60;;
24435;SDS011;12616;52.470;13.436;2023-05-02T01:23:45;8.53;;;5.77;;
24435;SDS011;12616;52.470;13.436;2023-05-02T01:26:23;6.83;;;6.20;;
24435;SDS011;12616;52.470;13.436;2023-05-02T01:28:59;6.93;;;6.27;;
24435;SDS011;12616;52.470;13.436;2023-05-02T01:31:32;7.50;;;6.70;;
24435;SDS011;12616;52.470;13.436;2023-05-02T01:34:02;6.67;;;6.07;;
24435;SDS011;12616;52.470;13.436;2023-05-02T01:36:32;6.10;;;5.60;;
24435;SDS011;12616;52.470;13.436;2023-05-02T01:39:01;8.60;;;6.60;;
24435;SDS011;12616;52.470;13.436;2023-05-02T01:41:31;11.07;;;6.80;;
24435;SDS011;12616;52.470;13.436;2023-05-02T01:44:02;7.00;;;6.10;;
24435;SDS011;12616;52.470;13.436;2023-05-02T01:46:33;8.50;;;7.00;;
24435;SDS011;12616;52.470;13.436;2023-05-02T01:49:05;7.70;;;6.90;;
24435;SDS011;12616;52.470;13.436;2023-05-02T01:51:34;8.37;;;5.83;;
24435;SDS011;12616;52.470;13.436;2023-05-02T01:54:03;6.43;;;5.83;;
24435;SDS011;12616;52.470;13.436;2023-05-02T01:56:34;7.00;;;5.70;;
24435;SDS011;12616;52.470;13.436;2023-05-02T01:59:10;7.30;;;6.10;;
24435;SDS011;12616;52.470;13.436;2023-05-02T02:01:38;8.60;;;6.40;;
24435;SDS011;12616;52.470;13.436;2023-05-02T02:04:08;7.43;;;6.60;;
24435;SDS011;12616;52.470;13.436;2023-05-02T02:06:36;6.20;;;5.60;;
24435;SDS011;12616;52.470;13.436;2023-05-02T02:09:03;6.73;;;5.40;;
24435;SDS011;12616;52.470;13.436;2023-05-02T02:11:33;6.10;;;5.50;;
24435;SDS011;12616;52.470;13.436;2023-05-02T02:14:06;6.53;;;5.63;;
24435;SDS011;12616;52.470;13.436;2023-05-02T02:16:48;5.70;;;5.10;;
24435;SDS011;12616;52.470;13.436;2023-05-02T02:19:20;6.47;;;5.20;;
24435;SDS011;12616;52.470;13.436;2023-05-02T02:21:48;6.37;;;5.73;;
24435;SDS011;12616;52.470;13.436;2023-05-02T02:24:17;9.63;;;7.07;;
24435;SDS011;12616;52.470;13.436;2023-05-02T02:26:46;5.40;;;4.90;;
24435;SDS011;12616;52.470;13.436;2023-05-02T02:29:15;8.23;;;5.67;;
24435;SDS011;12616;52.470;13.436;2023-05-02T02:31:42;6.00;;;5.47;;
24435;SDS011;12616;52.470;13.436;2023-05-02T02:34:09;6.27;;;5.77;;
24435;SDS011;12616;52.470;13.436;2023-05-02T02:36:39;7.30;;;4.93;;
24435;SDS011;12616;52.470;13.436;2023-05-02T02:39:17;7.70;;;5.80;;
24435;SDS011;12616;52.470;13.436;2023-05-02T02:41:57;7.33;;;5.10;;
24435;SDS011;12616;52.470;13.436;2023-05-02T02:44:34;9.17;;;5.57;;
24435;SDS011;12616;52.470;13.436;2023-05-02T02:47:15;4.70;;;4.30;;
24435;SDS011;12616;52.470;13.436;2023-05-02T02:49:49;9.43;;;6.13;;
24435;SDS011;12616;52.470;13.436;2023-05-02T02:52:20;5.50;;;5.10;;
24435;SDS011;12616;52.470;13.436;2023-05-02T02:54:52;7.73;;;6.30;;
24435;SDS011;12616;52.470;13.436;2023-05-02T02:57:26;6.17;;;5.43;;
24435;SDS011;12616;52.470;13.436;2023-05-02T03:00:04;4.93;;;4.60;;
24435;SDS011;12616;52.470;13.436;2023-05-02T03:02:36;6.80;;;6.20;;
24435;SDS011;12616;52.470;13.436;2023-05-02T03:05:07;5.60;;;4.70;;
24435;SDS011;12616;52.470;13.436;2023-05-02T03:07:36;5.37;;;4.80;;
24435;SDS011;12616;52.470;13.436;2023-05-02T03:10:03;5.93;;;5.13;;
24435;SDS011;12616;52.470;13.436;2023-05-02T03:12:36;6.03;;;5.20;;
24435;SDS011;12616;52.470;13.436;2023-05-02T03:15:11;5.73;;;5.23;;
24435;SDS011;12616;52.470;13.436;2023-05-02T03:18:06;6.93;;;5.60;;
24435;SDS011;12616;52.470;13.436;2023-05-02T03:20:36;4.80;;;4.40;;
24435;SDS011;12616;52.470;13.436;2023-05-02T03:23:04;5.17;;;4.67;;
24435;SDS011;12616;52.470;13.436;2023-05-02T03:25:32;5.33;;;4.90;;
24435;SDS011;12616;52.470;13.436;2023-05-02T03:28:02;6.90;;;5.33;;
24435;SDS011;12616;52.470;13.436;2023-05-02T03:30:32;4.90;;;4.50;;
24435;SDS011;12616;52.470;13.436;2023-05-02T03:33:04;5.53;;;5.03;;
24435;SDS011;12616;52.470;13.436;2023-05-02T03:35:43;9.23;;;5.17;;
24435;SDS011;12616;52.470;13.436;2023-05-02T03:38:13;5.70;;;4.73;;
24435;SDS011;12616;52.470;13.436;2023-05-02T03:40:44;4.67;;;4.27;;
24435;SDS011;12616;52.470;13.436;2023-05-02T03:43:14;4.73;;;4.33;;
24435;SDS011;12616;52.470;13.436;2023-05-02T03:45:44;7.50;;;5.40;;
24435;SDS011;12616;52.470;13.436;2023-05-02T03:48:14;4.73;;;4.33;;
24435;SDS011;12616;52.470;13.436;2023-05-02T03:50:45;8.60;;;5.40;;
24435;SDS011;12616;52.470;13.436;2023-05-02T03:53:13;6.43;;;4.80;;
24435;SDS011;12616;52.470;13.436;2023-05-02T03:55:41;4.97;;;4.57;;
24435;SDS011;12616;52.470;13.436;2023-05-02T03:58:11;5.53;;;4.73;;
24435;SDS011;12616;52.470;13.436;2023-05-02T04:00:39;8.90;;;4.73;;
24435;SDS011;12616;52.470;13.436;2023-05-02T04:03:09;6.20;;;5.67;;
24435;SDS011;12616;52.470;13.436;2023-05-02T04:05:38;7.37;;;6.27;;
24435;SDS011;12616;52.470;13.436;2023-05-02T04:08:08;6.07;;;4.90;;
24435;SDS011;12616;52.470;13.436;2023-05-02T04:10:35;5.70;;;5.10;;
24435;SDS011;12616;52.470;13.436;2023-05-02T04:13:02;6.00;;;5.50;;
24435;SDS011;12616;52.470;13.436;2023-05-02T04:15:31;6.70;;;4.53;;
24435;SDS011;12616;52.470;13.436;2023-05-02T04:17:59;8.10;;;5.03;;
24435;SDS011;12616;52.470;13.436;2023-05-02T04:20:28;7.20;;;4.90;;
24435;SDS011;12616;52.470;13.436;2023-05-02T04:22:55;8.17;;;4.70;;
24435;SDS011;12616;52.470;13.436;2023-05-02T04:25:22;7.60;;;5.53;;
24435;SDS011;12616;52.470;13.436;2023-05-02T04:27:49;7.40;;;4.90;;
24435;SDS011;12616;52.470;13.436;2023-05-02T04:30:16;5.73;;;5.23;;
24435;SDS011;12616;52.470;13.436;2023-05-02T04:32:43;9.00;;;5.83;;
24435;SDS011;12616;52.470;13.436;2023-05-02T04:35:10;7.83;;;5.80;;
24435;SDS011;12616;52.470;13.436;2023-05-02T04:37:38;5.87;;;4.40;;
24435;SDS011;12616;52.470;13.436;2023-05-02T04:40:05;5.67;;;4.80;;
24435;SDS011;12616;52.470;13.436;2023-05-02T04:42:33;7.47;;;3.93;;
24435;SDS011;12616;52.470;13.436;2023-05-02T04:45:00;6.37;;;4.40;;
24435;SDS011;12616;52.470;13.436;2023-05-02T04:47:26;6.83;;;4.77;;
24435;SDS011;12616;52.470;13.436;2023-05-02T04:49:53;6.30;;;4.73;;
24435;SDS011;12616;52.470;13.436;2023-05-02T04:52:20;4.73;;;4.10;;
24435;SDS011;12616;52.470;13.436;2023-05-02T04:54:48;9.60;;;4.20;;
24435;SDS011;12616;52.470;13.436;2023-05-02T04:57:15;8.23;;;4.80;;
24435;SDS011;12616;52.470;13.436;2023-05-02T04:59:42;10.10;;;4.00;;
24435;SDS011;12616;52.470;13.436;2023-05-02T05:02:09;6.30;;;4.13;;
24435;SDS011;12616;52.470;13.436;2023-05-02T05:04:37;4.87;;;4.47;;
24435;SDS011;12616;52.470;13.436;2023-05-02T05:07:03;7.43;;;4.80;;
24435;SDS011;12616;52.470;13.436;2023-05-02T05:09:30;5.77;;;4.57;;
24435;SDS011;12616;52.470;13.436;2023-05-02T05:11:58;5.40;;;4.47;;
24435;SDS011;12616;52.470;13.436;2023-05-02T05:14:25;10.03;;;4.43;;
24435;SDS011;12616;52.470;13.436;2023-05-02T05:16:52;8.80;;;4.83;;
24435;SDS011;12616;52.470;13.436;2023-05-02T05:19:19;5.80;;;4.50;;
24435;SDS011;12616;52.470;13.436;2023-05-02T05:21:46;8.73;;;5.03;;
24435;SDS011;12616;52.470;13.436;2023-05-02T05:24:13;7.13;;;5.40;;
24435;SDS011;12616;52.470;13.436;2023-05-02T05:26:40;7.43;;;4.57;;
24435;SDS011;12616;52.470;13.436;2023-05-02T05:29:08;8.70;;;5.47;;
24435;SDS011;12616;52.470;13.436;2023-05-02T05:31:35;13.03;;;5.53;;
24435;SDS011;12616;52.470;13.436;2023-05-02T05:34:02;6.00;;;5.00;;
24435;SDS011;12616;52.470;13.436;2023-05-02T05:36:29;4.33;;;3.93;;
24435;SDS011;12616;52.470;13.436;2023-05-02T05:38:56;8.10;;;5.93;;
24435;SDS011;12616;52.470;13.436;2023-05-02T05:41:23;7.47;;;5.40;;
24435;SDS011;12616;52.470;13.436;2023-05-02T05:43:50;8.10;;;4.90;;
24435;SDS011;12616;52.470;13.436;2023-05-02T05:46:18;6.90;;;5.80;;
24435;SDS011;12616;52.470;13.436;2023-05-02T05:48:45;6.63;;;4.90;;
24435;SDS011;12616;52.470;13.436;2023-05-02T05:51:12;12.63;;;5.50;;
24435;SDS011;12616;52.470;13.436;2023-05-02T05:53:39;11.07;;;6.50;;
24435;SDS011;12616;52.470;13.436;2023-05-02T05:56:09;5.60;;;5.10;;
24435;SDS011;12616;52.470;13.436;2023-05-02T05:58:36;8.33;;;6.83;;
24435;SDS011;12616;52.470;13.436;2023-05-02T06:01:03;10.10;;;6.10;;
24435;SDS011;12616;52.470;13.436;2023-05-02T06:03:31;8.70;;;5.70;;
24435;SDS011;12616;52.470;13.436;2023-05-02T06:05:58;8.70;;;5.87;;
24435;SDS011;12616;52.470;13.436;2023-05-02T06:08:25;10.43;;;5.73;;
24435;SDS011;12616;52.470;13.436;2023-05-02T06:10:52;6.60;;;5.90;;
24435;SDS011;12616;52.470;13.436;2023-05-02T06:13:19;11.67;;;6.17;;
24435;SDS011;12616;52.470;13.436;2023-05-02T06:15:45;9.80;;;6.20;;
24435;SDS011;12616;52.470;13.436;2023-05-02T06:18:14;8.23;;;6.17;;
24435;SDS011;12616;52.470;13.436;2023-05-02T06:20:42;7.73;;;6.97;;
24435;SDS011;12616;52.470;13.436;2023-05-02T06:23:08;7.77;;;5.53;;
24435;SDS011;12616;52.470;13.436;2023-05-02T06:25:38;9.13;;;6.53;;
24435;SDS011;12616;52.470;13.436;2023-05-02T06:28:05;6.87;;;6.07;;
24435;SDS011;12616;52.470;13.436;2023-05-02T06:30:33;14.03;;;6.20;;
24435;SDS011;12616;52.470;13.436;2023-05-02T06:33:02;9.10;;;5.47;;
24435;SDS011;12616;52.470;13.436;2023-05-02T06:35:30;6.50;;;5.80;;
24435;SDS011;12616;52.470;13.436;2023-05-02T06:37:58;11.47;;;6.47;;
24435;SDS011;12616;52.470;13.436;2023-05-02T06:40:25;9.57;;;7.53;;
24435;SDS011;12616;52.470;13.436;2023-05-02T06:42:52;8.80;;;6.00;;
24435;SDS011;12616;52.470;13.436;2023-05-02T06:45:19;11.40;;;7.00;;
24435;SDS011;12616;52.470;13.436;2023-05-02T06:47:45;8.20;;;6.67;;
24435;SDS011;12616;52.470;13.436;2023-05-02T06:50:12;13.90;;;8.53;;
24435;SDS011;12616;52.470;13.436;2023-05-02T06:52:39;10.40;;;7.87;;
24435;SDS011;12616;52.470;13.436;2023-05-02T06:55:08;13.87;;;8.43;;
24435;SDS011;12616;52.470;13.436;2023-05-02T06:57:35;10.37;;;8.00;;
24435;SDS011;12616;52.470;13.436;2023-05-02T07:00:02;12.70;;;9.27;;
24435;SDS011;12616;52.470;13.436;2023-05-02T07:02:30;12.57;;;8.50;;
24435;SDS011;12616;52.470;13.436;2023-05-02T07:04:57;9.90;;;8.27;;
24435;SDS011;12616;52.470;13.436;2023-05-02T07:07:24;10.30;;;7.30;;
24435;SDS011;12616;52.470;13.436;2023-05-02T07:09:51;11.60;;;7.80;;
24435;SDS011;12616;52.470;13.436;2023-05-02T07:12:19;10.23;;;7.70;;
24435;SDS011;12616;52.470;13.436;2023-05-02T07:14:47;7.80;;;7.00;;
24435;SDS011;12616;52.470;13.436;2023-05-02T07:17:14;11.03;;;7.57;;
24435;SDS011;12616;52.470;13.436;2023-05-02T07:19:40;9.37;;;7.57;;
24435;SDS011;12616;52.470;13.436;2023-05-02T07:22:08;7.03;;;6.30;;
24435;SDS011;12616;52.470;13.436;2023-05-02T07:24:35;8.23;;;6.97;;
24435;SDS011;12616;52.470;13.436;2023-05-02T07:27:05;10.13;;;7.60;;
24435;SDS011;12616;52.470;13.436;2023-05-02T07:29:33;10.17;;;7.40;;
24435;SDS011;12616;52.470;13.436;2023-05-02T07:32:00;7.27;;;6.57;;
24435;SDS011;12616;52.470;13.436;2023-05-02T07:34:27;8.77;;;6.77;;
24435;SDS011;12616;52.470;13.436;2023-05-02T07:36:54;10.50;;;6.70;;
24435;SDS011;12616;52.470;13.436;2023-05-02T07:39:21;11.00;;;6.77;;
24435;SDS011;12616;52.470;13.436;2023-05-02T07:41:50;14.33;;;8.43;;
24435;SDS011;12616;52.470;13.436;2023-05-02T07:44:17;9.00;;;7.27;;
24435;SDS011;12616;52.470;13.436;2023-05-02T07:46:45;12.63;;;7.60;;
24435;SDS011;12616;52.470;13.436;2023-05-02T07:49:12;13.70;;;7.57;;
24435;SDS011;12616;52.470;13.436;2023-05-02T07:51:39;9.10;;;6.33;;
24435;SDS011;12616;52.470;13.436;2023-05-02T07:54:13;8.60;;;7.17;;
24435;SDS011;12616;52.470;13.436;2023-05-02T07:56:41;36.87;;;9.50;;
24435;SDS011;12616;52.470;13.436;2023-05-02T07:59:08;14.83;;;7.60;;
24435;SDS011;12616;52.470;13.436;2023-05-02T08:01:35;9.43;;;6.27;;
24435;SDS011;12616;52.470;13.436;2023-05-02T08:04:04;11.23;;;6.57;;
24435;SDS011;12616;52.470;13.436;2023-05-02T08:06:31;10.20;;;7.97;;
24435;SDS011;12616;52.470;13.436;2023-05-02T08:08:58;13.33;;;7.30;;
24435;SDS011;12616;52.470;13.436;2023-05-02T08:11:25;12.20;;;7.33;;
24435;SDS011;12616;52.470;13.436;2023-05-02T08:13:52;7.00;;;5.87;;
24435;SDS011;12616;52.470;13.436;2023-05-02T08:16:19;7.10;;;6.03;;
24435;SDS011;12616;52.470;13.436;2023-05-02T08:18:46;5.90;;;5.40;;
24435;SDS011;12616;52.470;13.436;2023-05-02T08:21:14;13.97;;;6.53;;
24435;SDS011;12616;52.470;13.436;2023-05-02T08:23:41;11.90;;;7.37;;
24435;SDS011;12616;52.470;13.436;2023-05-02T08:26:10;7.10;;;6.03;;
24435;SDS011;12616;52.470;13.436;2023-05-02T08:28:38;8.57;;;6.13;;
24435;SDS011;12616;52.470;13.436;2023-05-02T08:31:05;8.43;;;6.20;;
24435;SDS011;12616;52.470;13.436;2023-05-02T08:33:32;7.27;;;5.93;;
24435;SDS011;12616;52.470;13.436;2023-05-02T08:35:59;9.47;;;6.03;;
24435;SDS011;12616;52.470;13.436;2023-05-02T08:38:27;7.53;;;6.20;;
24435;SDS011;12616;52.470;13.436;2023-05-02T08:40:54;9.43;;;5.70;;
24435;SDS011;12616;52.470;13.436;2023-05-02T08:43:21;8.47;;;5.73;;
24435;SDS011;12616;52.470;13.436;2023-05-02T08:45:48;9.90;;;6.47;;
24435;SDS011;12616;52.470;13.436;2023-05-02T08:48:18;8.70;;;6.77;;
24435;SDS011;12616;52.470;13.436;2023-05-02T08:50:45;6.90;;;5.80;;
24435;SDS011;12616;52.470;13.436;2023-05-02T08:53:13;9.93;;;6.37;;
24435;SDS011;12616;52.470;13.436;2023-05-02T08:58:54;8.00;;;6.13;;
24435;SDS011;12616;52.470;13.436;2023-05-02T09:01:22;10.70;;;6.30;;
24435;SDS011;12616;52.470;13.436;2023-05-02T09:03:54;8.00;;;5.73;;
24435;SDS011;12616;52.470;13.436;2023-05-02T09:06:26;5.80;;;4.30;;
24435;SDS011;12616;52.470;13.436;2023-05-02T09:09:06;5.80;;;5.20;;
24435;SDS011;12616;52.470;13.436;2023-05-02T09:11:41;5.30;;;4.80;;
24435;SDS011;12616;52.470;13.436;2023-05-02T09:14:25;8.70;;;4.37;;
24435;SDS011;12616;52.470;13.436;2023-05-02T09:17:20;5.80;;;4.73;;
24435;SDS011;12616;52.470;13.436;2023-05-02T09:26:22;5.90;;;4.03;;
24435;SDS011;12616;52.470;13.436;2023-05-02T09:39:32;5.93;;;5.13;;
24435;SDS011;12616;52.470;13.436;2023-05-02T09:42:01;6.67;;;4.30;;
24435;SDS011;12616;52.470;13.436;2023-05-02T09:44:45;4.63;;;4.23;;
24435;SDS011;12616;52.470;13.436;2023-05-02T09:47:46;7.33;;;4.03;;
24435;SDS011;12616;52.470;13.436;2023-05-02T09:50:34;4.90;;;3.87;;
24435;SDS011;12616;52.470;13.436;2023-05-02T09:53:06;6.10;;;4.00;;
24435;SDS011;12616;52.470;13.436;2023-05-02T09:55:51;4.07;;;3.67;;
24435;SDS011;12616;52.470;13.436;2023-05-02T09:58:29;4.93;;;3.87;;
24435;SDS011;12616;52.470;13.436;2023-05-02T10:00:59;4.87;;;4.30;;
24435;SDS011;12616;52.470;13.436;2023-05-02T10:03:35;4.43;;;3.73;;
24435;SDS011;12616;52.470;13.436;2023-05-02T10:09:19;5.40;;;4.20;;
24435;SDS011;12616;52.470;13.436;2023-05-02T10:12:02;7.60;;;4.53;;
24435;SDS011;12616;52.470;13.436;2023-05-02T10:14:33;8.00;;;4.90;;
24435;SDS011;12616;52.470;13.436;2023-05-02T10:17:08;4.93;;;4.40;;
24435;SDS011;12616;52.470;13.436;2023-05-02T10:19:40;4.37;;;3.97;;
24435;SDS011;12616;52.470;13.436;2023-05-02T10:24:43;5.50;;;4.93;;
24435;SDS011;12616;52.470;13.436;2023-05-02T10:27:11;7.03;;;5.07;;
24435;SDS011;12616;52.470;13.436;2023-05-02T10:29:38;6.27;;;4.53;;
24435;SDS011;12616;52.470;13.436;2023-05-02T10:32:10;4.40;;;4.00;;
24435;SDS011;12616;52.470;13.436;2023-05-02T10:34:39;8.30;;;4.50;;
24435;SDS011;12616;52.470;13.436;2023-05-02T10:37:06;5.10;;;4.60;;
24435;SDS011;12616;52.470;13.436;2023-05-02T10:39:33;6.50;;;5.57;;
24435;SDS011;12616;52.470;13.436;2023-05-02T10:42:00;5.83;;;4.00;;
24435;SDS011;12616;52.470;13.436;2023-05-02T10:44:35;5.00;;;4.00;;
24435;SDS011;12616;52.470;13.436;2023-05-02T10:47:16;6.00;;;4.43;;
24435;SDS011;12616;52.470;13.436;2023-05-02T10:49:51;3.90;;;3.23;;
24435;SDS011;12616;52.470;13.436;2023-05-02T10:52:27;5.10;;;4.60;;
24435;SDS011;12616;52.470;13.436;2023-05-02T11:00:47;5.10;;;4.57;;
24435;SDS011;12616;52.470;13.436;2023-05-02T11:03:15;4.47;;;4.07;;
24435;SDS011;12616;52.470;13.436;2023-05-02T11:06:21;3.97;;;3.57;;
24435;SDS011;12616;52.470;13.436;2023-05-02T11:08:52;9.17;;;4.70;;
24435;SDS011;12616;52.470;13.436;2023-05-02T11:11:38;4.20;;;3.90;;
24435;SDS011;12616;52.470;13.436;2023-05-02T11:14:06;3.87;;;3.47;;
24435;SDS011;12616;52.470;13.436;2023-05-02T11:22:48;10.73;;;5.27;;
24435;SDS011;12616;52.470;13.436;2023-05-02T11:25:28;8.50;;;6.37;;
24435;SDS011;12616;52.470;13.436;2023-05-02T11:27:55;10.87;;;5.70;;
24435;SDS011;12616;52.470;13.436;2023-05-02T11:30:38;9.93;;;6.27;;
24435;SDS011;12616;52.470;13.436;2023-05-02T11:33:13;10.50;;;6.47;;
24435;SDS011;12616;52.470;13.436;2023-05-02T11:35:41;7.27;;;6.57;;
24435;SDS011;12616;52.470;13.436;2023-05-02T11:38:12;18.63;;;7.97;;
24435;SDS011;12616;52.470;13.436;2023-05-02T11:40:50;11.53;;;6.83;;
24435;SDS011;12616;52.470;13.436;2023-05-02T11:43:25;11.50;;;6.27;;
24435;SDS011;12616;52.470;13.436;2023-05-02T11:45:53;8.17;;;5.40;;
24435;SDS011;12616;52.470;13.436;2023-05-02T11:48:21;6.93;;;4.90;;
24435;SDS011;12616;52.470;13.436;2023-05-02T11:50:51;5.20;;;4.03;;
24435;SDS011;12616;52.470;13.436;2023-05-02T11:53:21;8.27;;;5.57;;
24435;SDS011;12616;52.470;13.436;2023-05-02T11:55:50;12.43;;;5.70;;
24435;SDS011;12616;52.470;13.436;2023-05-02T11:58:20;6.97;;;5.37;;
24435;SDS011;12616;52.470;13.436;2023-05-02T12:00:48;7.00;;;4.70;;
24435;SDS011;12616;52.470;13.436;2023-05-02T12:03:20;4.90;;;4.37;;
24435;SDS011;12616;52.470;13.436;2023-05-02T12:05:47;7.60;;;5.20;;
24435;SDS011;12616;52.470;13.436;2023-05-02T12:08:18;6.23;;;3.83;;
24435;SDS011;12616;52.470;13.436;2023-05-02T12:10:48;8.30;;;4.37;;
24435;SDS011;12616;52.470;13.436;2023-05-02T12:13:16;5.70;;;4.50;;
24435;SDS011;12616;52.470;13.436;2023-05-02T12:15:43;6.33;;;4.77;;
24435;SDS011;12616;52.470;13.436;2023-05-02T12:18:11;6.40;;;4.13;;
24435;SDS011;12616;52.470;13.436;2023-05-02T12:20:39;6.00;;;4.20;;
24435;SDS011;12616;52.470;13.436;2023-05-02T12:23:09;4.33;;;3.93;;
24435;SDS011;12616;52.470;13.436;2023-05-02T12:25:38;9.67;;;4.60;;
24435;SDS011;12616;52.470;13.436;2023-05-02T12:28:06;10.93;;;4.93;;
24435;SDS011;12616;52.470;13.436;2023-05-02T12:30:33;7.43;;;3.67;;
24435;SDS011;12616;52.470;13.436;2023-05-02T12:33:02;9.10;;;4.30;;
24435;SDS011;12616;52.470;13.436;2023-05-02T12:35:30;5.50;;;3.50;;
24435;SDS011;12616;52.470;13.436;2023-05-02T12:38:07;5.53;;;4.10;;
24435;SDS011;12616;52.470;13.436;2023-05-02T12:40:35;7.90;;;3.93;;
24435;SDS011;12616;52.470;13.436;2023-05-02T12:43:03;6.00;;;4.47;;
24435;SDS011;12616;52.470;13.436;2023-05-02T12:45:34;9.37;;;4.30;;
24435;SDS011;12616;52.470;13.436;2023-05-02T12:48:01;7.40;;;3.87;;
24435;SDS011;12616;52.470;13.436;2023-05-02T12:50:42;9.63;;;4.23;;
24435;SDS011;12616;52.470;13.436;2023-05-02T12:53:09;5.17;;;3.83;;
24435;SDS011;12616;52.470;13.436;2023-05-02T12:55:36;8.53;;;4.60;;
24435;SDS011;12616;52.470;13.436;2023-05-02T12:58:05;14.03;;;4.93;;
24435;SDS011;12616;52.470;13.436;2023-05-02T13:00:33;15.10;;;6.03;;
24435;SDS011;12616;52.470;13.436;2023-05-02T13:03:01;9.20;;;4.67;;
24435;SDS011;12616;52.470;13.436;2023-05-02T13:05:29;11.43;;;4.53;;
24435;SDS011;12616;52.470;13.436;2023-05-02T13:07:56;7.23;;;4.50;;
24435;SDS011;12616;52.470;13.436;2023-05-02T13:10:23;8.60;;;4.57;;
24435;SDS011;12616;52.470;13.436;2023-05-02T13:12:51;10.20;;;4.53;;
24435;SDS011;12616;52.470;13.436;2023-05-02T13:15:19;13.30;;;5.70;;
24435;SDS011;12616;52.470;13.436;2023-05-02T13:17:48;11.93;;;6.67;;
24435;SDS011;12616;52.470;13.436;2023-05-02T13:20:16;7.60;;;5.13;;
24435;SDS011;12616;52.470;13.436;2023-05-02T13:22:43;12.53;;;4.50;;
24435;SDS011;12616;52.470;13.436;2023-05-02T13:25:09;11.00;;;4.67;;
24435;SDS011;12616;52.470;13.436;2023-05-02T13:27:36;16.10;;;5.30;;
24435;SDS011;12616;52.470;13.436;2023-05-02T13:30:05;10.57;;;5.03;;
24435;SDS011;12616;52.470;13.436;2023-05-02T13:32:34;8.70;;;3.77;;
24435;SDS011;12616;52.470;13.436;2023-05-02T13:35:01;12.37;;;4.80;;
24435;SDS011;12616;52.470;13.436;2023-05-02T13:37:28;9.37;;;4.87;;
24435;SDS011;12616;52.470;13.436;2023-05-02T13:39:55;13.63;;;5.20;;
24435;SDS011;12616;52.470;13.436;2023-05-02T13:42:23;7.60;;;3.90;;
24435;SDS011;12616;52.470;13.436;2023-05-02T13:44:49;6.33;;;3.87;;
24435;SDS011;12616;52.470;13.436;2023-05-02T13:47:17;10.93;;;4.30;;
24435;SDS011;12616;52.470;13.436;2023-05-02T13:49:45;6.10;;;3.97;;
24435;SDS011;12616;52.470;13.436;2023-05-02T13:52:11;8.83;;;4.40;;
24435;SDS011;12616;52.470;13.436;2023-05-02T13:54:38;6.93;;;4.47;;
24435;SDS011;12616;52.470;13.436;2023-05-02T13:57:05;5.80;;;4.30;;
24435;SDS011;12616;52.470;13.436;2023-05-02T13:59:32;7.17;;;5.80;;
24435;SDS011;12616;52.470;13.436;2023-05-02T14:01:59;6.53;;;4.00;;
24435;SDS011;12616;52.470;13.436;2023-05-02T14:04:26;5.90;;;4.50;;
24435;SDS011;12616;52.470;13.436;2023-05-02T14:06:57;7.83;;;4.43;;
24435;SDS011;12616;52.470;13.436;2023-05-02T14:09:26;11.10;;;4.60;;
24435;SDS011;12616;52.470;13.436;2023-05-02T14:11:53;8.93;;;4.40;;
24435;SDS011;12616;52.470;13.436;2023-05-02T14:14:20;6.20;;;4.10;;
24435;SDS011;12616;52.470;13.436;2023-05-02T14:16:47;8.67;;;4.77;;
24435;SDS011;12616;52.470;13.436;2023-05-02T14:19:14;8.30;;;4.80;;
24435;SDS011;12616;52.470;13.436;2023-05-02T14:21:42;9.77;;;4.47;;
24435;SDS011;12616;52.470;13.436;2023-05-02T14:24:10;7.53;;;4.67;;
24435;SDS011;12616;52.470;13.436;2023-05-02T14:26:38;8.80;;;4.70;;
24435;SDS011;12616;52.470;13.436;2023-05-02T14:29:06;12.20;;;4.97;;
24435;SDS011;12616;52.470;13.436;2023-05-02T14:31:33;6.00;;;4.90;;
24435;SDS011;12616;52.470;13.436;2023-05-02T14:34:00;5.00;;;4.50;;
24435;SDS011;12616;52.470;13.436;2023-05-02T14:36:26;12.53;;;5.90;;
24435;SDS011;12616;52.470;13.436;2023-05-02T14:38:53;9.57;;;4.50;;
24435;SDS011;12616;52.470;13.436;2023-05-02T14:41:22;8.73;;;4.33;;
24435;SDS011;12616;52.470;13.436;2023-05-02T14:43:50;14.33;;;4.83;;
24435;SDS011;12616;52.470;13.436;2023-05-02T14:46:17;10.10;;;4.27;;
24435;SDS011;12616;52.470;13.436;2023-05-02T14:48:44;13.77;;;5.03;;
24435;SDS011;12616;52.470;13.436;2023-05-02T14:51:11;9.53;;;4.80;;
24435;SDS011;12616;52.470;13.436;2023-05-02T14:53:37;6.70;;;4.10;;
24435;SDS011;12616;52.470;13.436;2023-05-02T14:56:05;6.30;;;5.70;;
24435;SDS011;12616;52.470;13.436;2023-05-02T14:58:38;8.20;;;4.90;;
24435;SDS011;12616;52.470;13.436;2023-05-02T15:01:05;8.33;;;4.83;;
24435;SDS011;12616;52.470;13.436;2023-05-02T15:03:32;7.10;;;4.70;;
24435;SDS011;12616;52.470;13.436;2023-05-02T15:05:59;7.23;;;4.33;;
24435;SDS011;12616;52.470;13.436;2023-05-02T15:08:26;4.70;;;3.80;;
24435;SDS011;12616;52.470;13.436;2023-05-02T15:10:53;9.63;;;4.83;;
24435;SDS011;12616;52.470;13.436;2023-05-02T15:13:21;5.40;;;3.83;;
24435;SDS011;12616;52.470;13.436;2023-05-02T15:15:51;9.70;;;4.10;;
24435;SDS011;12616;52.470;13.436;2023-05-02T15:18:19;4.23;;;3.93;;
24435;SDS011;12616;52.470;13.436;2023-05-02T15:21:01;5.20;;;3.50;;
24435;SDS011;12616;52.470;13.436;2023-05-02T15:23:28;7.60;;;4.57;;